sensor_id;sensor_type;location;lat;lon;timestamp;pressure;altitude;pressure_sealevel;temperature;humidity
55675;BME280;41562;44.330;23.802;2023-02-03T00:00:09;100423.19;;;4.19;87.96
55675;BME280;41562;44.330;23.802;2023-02-03T00:02:37;100420.69;;;4.24;90.37
55675;BME280;41562;44.330;23.802;2023-02-03T00:05:04;100419.00;;;4.30;86.33
55675;BME280;41562;44.330;23.802;2023-02-03T00:07:32;100434.97;;;4.23;86.54
55675;BME280;41562;44.330;23.802;2023-02-03T00:10:03;100439.66;;;4.21;86.48
55675;BME280;41562;44.330;23.802;2023-02-03T00:12:30;100440.94;;;4.30;89.55
55675;BME280;41562;44.330;23.802;2023-02-03T00:14:58;100441.84;;;4.24;86.62
55675;BME280;41562;44.330;23.802;2023-02-03T00:17:25;100442.66;;;4.25;86.17
55675;BME280;41562;44.330;23.802;2023-02-03T00:19:52;100450.84;;;4.23;86.27
55675;BME280;41562;44.330;23.802;2023-02-03T00:22:19;100446.44;;;4.47;95.35
55675;BME280;41562;44.330;23.802;2023-02-03T00:24:47;100455.66;;;4.26;86.65
55675;BME280;41562;44.330;23.802;2023-02-03T00:27:14;100459.53;;;4.42;85.92
55675;BME280;41562;44.330;23.802;2023-02-03T00:29:41;100459.72;;;4.29;86.31
55675;BME280;41562;44.330;23.802;2023-02-03T00:32:08;100461.72;;;4.45;91.59
55675;BME280;41562;44.330;23.802;2023-02-03T00:34:39;100461.81;;;4.38;86.20
55675;BME280;41562;44.330;23.802;2023-02-03T00:37:07;100460.53;;;4.29;86.46
55675;BME280;41562;44.330;23.802;2023-02-03T00:39:37;100456.25;;;4.28;85.85
55675;BME280;41562;44.330;23.802;2023-02-03T00:42:05;100451.44;;;4.37;88.36
55675;BME280;41562;44.330;23.802;2023-02-03T00:44:32;100462.41;;;4.40;86.66
55675;BME280;41562;44.330;23.802;2023-02-03T00:47:00;100465.19;;;4.45;85.50
55675;BME280;41562;44.330;23.802;2023-02-03T00:49:27;100467.69;;;4.40;86.08
55675;BME280;41562;44.330;23.802;2023-02-03T00:51:54;100465.19;;;4.45;89.00
55675;BME280;41562;44.330;23.802;2023-02-03T00:54:22;100475.72;;;4.34;86.14
55675;BME280;41562;44.330;23.802;2023-02-03T00:56:49;100477.91;;;4.37;86.00
55675;BME280;41562;44.330;23.802;2023-02-03T00:59:16;100475.47;;;4.54;85.92
55675;BME280;41562;44.330;23.802;2023-02-03T01:01:44;100477.56;;;4.63;87.68
55675;BME280;41562;44.330;23.802;2023-02-03T01:04:11;100477.94;;;4.67;85.86
55675;BME280;41562;44.330;23.802;2023-02-03T01:06:40;100477.66;;;4.57;85.74
55675;BME280;41562;44.330;23.802;2023-02-03T01:09:07;100479.66;;;4.43;85.09
55675;BME280;41562;44.330;23.802;2023-02-03T01:11:35;100477.31;;;4.53;90.68
55675;BME280;41562;44.330;23.802;2023-02-03T01:14:02;100476.94;;;4.50;86.35
55675;BME280;41562;44.330;23.802;2023-02-03T01:16:30;100479.84;;;4.60;85.08
55675;BME280;41562;44.330;23.802;2023-02-03T01:18:57;100480.63;;;4.49;86.30
55675;BME280;41562;44.330;23.802;2023-02-03T01:21:25;100482.22;;;4.50;89.52
55675;BME280;41562;44.330;23.802;2023-02-03T01:23:53;100484.13;;;4.61;87.96
55675;BME280;41562;44.330;23.802;2023-02-03T01:26:22;100481.66;;;4.48;86.54
55675;BME280;41562;44.330;23.802;2023-02-03T01:28:55;100480.25;;;4.45;86.67
55675;BME280;41562;44.330;23.802;2023-02-03T01:31:26;100477.09;;;4.55;90.98
55675;BME280;41562;44.330;23.802;2023-02-03T01:33:55;100474.59;;;4.71;86.60
55675;BME280;41562;44.330;23.802;2023-02-03T01:36:24;100472.53;;;4.43;86.85
55675;BME280;41562;44.330;23.802;2023-02-03T01:38:52;100468.59;;;4.34;87.11
55675;BME280;41562;44.330;23.802;2023-02-03T01:41:23;100475.19;;;4.43;86.96
55675;BME280;41562;44.330;23.802;2023-02-03T01:43:53;100473.25;;;4.51;87.42
55675;BME280;41562;44.330;23.802;2023-02-03T01:46:32;100477.81;;;4.43;87.98
55675;BME280;41562;44.330;23.802;2023-02-03T01:49:08;100463.03;;;4.54;87.17
55675;BME280;41562;44.330;23.802;2023-02-03T01:51:39;100468.34;;;4.54;87.14
55675;BME280;41562;44.330;23.802;2023-02-03T01:54:10;100465.44;;;4.56;87.75
55675;BME280;41562;44.330;23.802;2023-02-03T01:56:41;100462.09;;;4.49;87.40
55675;BME280;41562;44.330;23.802;2023-02-03T01:59:10;100457.34;;;4.39;87.62
55675;BME280;41562;44.330;23.802;2023-02-03T02:01:38;100464.94;;;4.35;89.58
55675;BME280;41562;44.330;23.802;2023-02-03T02:04:07;100473.72;;;4.48;89.82
55675;BME280;41562;44.330;23.802;2023-02-03T02:06:34;100477.81;;;4.43;88.99
55675;BME280;41562;44.330;23.802;2023-02-03T02:09:03;100480.72;;;4.42;88.22
55675;BME280;41562;44.330;23.802;2023-02-03T02:11:30;100478.34;;;4.22;88.92
55675;BME280;41562;44.330;23.802;2023-02-03T02:13:59;100489.91;;;4.39;90.51
55675;BME280;41562;44.330;23.802;2023-02-03T02:16:46;100485.53;;;4.15;90.55
55675;BME280;41562;44.330;23.802;2023-02-03T02:22:13;100486.56;;;4.14;92.39
55675;BME280;41562;44.330;23.802;2023-02-03T02:33:19;100488.94;;;4.04;91.44
55675;BME280;41562;44.330;23.802;2023-02-03T02:36:21;100495.66;;;4.18;90.16
55675;BME280;41562;44.330;23.802;2023-02-03T02:39:05;100496.34;;;4.14;90.13
55675;BME280;41562;44.330;23.802;2023-02-03T02:41:59;100498.31;;;4.18;92.70
55675;BME280;41562;44.330;23.802;2023-02-03T02:44:32;100501.09;;;4.41;91.02
55675;BME280;41562;44.330;23.802;2023-02-03T02:47:05;100504.47;;;4.30;90.27
55675;BME280;41562;44.330;23.802;2023-02-03T02:49:42;100506.25;;;4.18;90.10
55675;BME280;41562;44.330;23.802;2023-02-03T02:52:12;100509.69;;;4.37;92.13
55675;BME280;41562;44.330;23.802;2023-02-03T02:54:43;100507.78;;;4.26;89.61
55675;BME280;41562;44.330;23.802;2023-02-03T02:57:14;100511.84;;;4.28;89.44
55675;BME280;41562;44.330;23.802;2023-02-03T02:59:45;100524.13;;;4.23;89.47
55675;BME280;41562;44.330;23.802;2023-02-03T03:02:13;100521.25;;;4.24;89.45
55675;BME280;41562;44.330;23.802;2023-02-03T03:04:42;100520.09;;;4.20;90.14
55675;BME280;41562;44.330;23.802;2023-02-03T03:07:16;100534.56;;;3.99;89.94
55675;BME280;41562;44.330;23.802;2023-02-03T03:09:55;100524.63;;;4.13;89.75
55675;BME280;41562;44.330;23.802;2023-02-03T03:12:31;100532.78;;;4.12;89.29
55675;BME280;41562;44.330;23.802;2023-02-03T03:15:07;100538.75;;;4.25;88.04
55675;BME280;41562;44.330;23.802;2023-02-03T03:17:45;100538.53;;;4.09;88.81
55675;BME280;41562;44.330;23.802;2023-02-03T03:20:19;100544.97;;;4.31;87.67
55675;BME280;41562;44.330;23.802;2023-02-03T03:22:54;100543.78;;;4.45;98.58
55675;BME280;41562;44.330;23.802;2023-02-03T03:25:27;100550.19;;;4.37;88.61
55675;BME280;41562;44.330;23.802;2023-02-03T03:28:03;100553.97;;;4.12;87.99
55675;BME280;41562;44.330;23.802;2023-02-03T03:30:34;100566.31;;;4.18;87.78
55675;BME280;41562;44.330;23.802;2023-02-03T03:33:03;100557.25;;;4.43;92.55
55675;BME280;41562;44.330;23.802;2023-02-03T03:38:23;100580.34;;;4.18;87.07
55675;BME280;41562;44.330;23.802;2023-02-03T03:41:01;100578.22;;;4.09;87.31
55675;BME280;41562;44.330;23.802;2023-02-03T03:43:32;100579.78;;;4.34;92.22
55675;BME280;41562;44.330;23.802;2023-02-03T03:46:04;100572.34;;;4.25;86.77
55675;BME280;41562;44.330;23.802;2023-02-03T03:48:39;100578.66;;;4.05;86.78
55675;BME280;41562;44.330;23.802;2023-02-03T03:51:17;100582.34;;;4.04;86.29
55675;BME280;41562;44.330;23.802;2023-02-03T03:53:48;100583.44;;;4.15;90.45
55675;BME280;41562;44.330;23.802;2023-02-03T03:56:22;100591.81;;;4.12;86.13
55675;BME280;41562;44.330;23.802;2023-02-03T03:58:52;100588.81;;;4.09;85.89
55675;BME280;41562;44.330;23.802;2023-02-03T04:01:21;100586.84;;;4.04;86.64
55675;BME280;41562;44.330;23.802;2023-02-03T04:03:54;100592.75;;;3.99;87.23
55675;BME280;41562;44.330;23.802;2023-02-03T04:06:23;100592.53;;;4.01;86.58
55675;BME280;41562;44.330;23.802;2023-02-03T04:08:50;100602.72;;;4.04;86.41
55675;BME280;41562;44.330;23.802;2023-02-03T04:11:18;100603.91;;;3.83;87.24
55675;BME280;41562;44.330;23.802;2023-02-03T04:13:45;100606.50;;;3.90;90.20
55675;BME280;41562;44.330;23.802;2023-02-03T04:16:12;100611.53;;;3.98;87.19
55675;BME280;41562;44.330;23.802;2023-02-03T04:18:39;100607.66;;;3.94;86.49
55675;BME280;41562;44.330;23.802;2023-02-03T04:21:07;100617.84;;;3.72;86.64
55675;BME280;41562;44.330;23.802;2023-02-03T04:23:34;100619.34;;;3.86;89.83
55675;BME280;41562;44.330;23.802;2023-02-03T04:26:02;100624.69;;;3.80;87.58
55675;BME280;41562;44.330;23.802;2023-02-03T04:28:29;100621.19;;;3.61;88.57
55675;BME280;41562;44.330;23.802;2023-02-03T04:30:59;100613.44;;;3.66;88.01
55675;BME280;41562;44.330;23.802;2023-02-03T04:33:27;100621.13;;;3.68;89.54
55675;BME280;41562;44.330;23.802;2023-02-03T04:35:54;100629.75;;;3.56;88.89
55675;BME280;41562;44.330;23.802;2023-02-03T04:38:22;100623.97;;;3.73;89.11
55675;BME280;41562;44.330;23.802;2023-02-03T04:40:52;100636.97;;;8.28;79.04
55675;BME280;41562;44.330;23.802;2023-02-03T04:43:21;100632.53;;;7.79;73.64
55675;BME280;41562;44.330;23.802;2023-02-03T04:46:00;100625.91;;;7.48;78.24
55675;BME280;41562;44.330;23.802;2023-02-03T04:48:28;100632.75;;;7.60;71.99
55675;BME280;41562;44.330;23.802;2023-02-03T04:51:00;100631.47;;;8.52;81.11
55675;BME280;41562;44.330;23.802;2023-02-03T04:53:29;100629.66;;;8.79;79.57
55675;BME280;41562;44.330;23.802;2023-02-03T04:55:57;100632.91;;;9.35;69.47
55675;BME280;41562;44.330;23.802;2023-02-03T04:58:25;100631.16;;;8.70;70.10
55675;BME280;41562;44.330;23.802;2023-02-03T05:00:54;100640.78;;;6.35;74.58
55675;BME280;41562;44.330;23.802;2023-02-03T05:03:22;100648.88;;;5.41;78.56
55675;BME280;41562;44.330;23.802;2023-02-03T05:05:55;100658.88;;;4.79;87.95
55675;BME280;41562;44.330;23.802;2023-02-03T05:08:23;100661.66;;;4.84;85.87
55675;BME280;41562;44.330;23.802;2023-02-03T05:10:51;100660.59;;;4.55;83.18
55675;BME280;41562;44.330;23.802;2023-02-03T05:13:19;100670.78;;;4.33;90.27
55675;BME280;41562;44.330;23.802;2023-02-03T05:15:47;100664.34;;;4.29;87.00
55675;BME280;41562;44.330;23.802;2023-02-03T05:18:14;100673.97;;;4.42;92.06
55675;BME280;41562;44.330;23.802;2023-02-03T05:20:42;100672.28;;;4.29;87.89
55675;BME280;41562;44.330;23.802;2023-02-03T05:23:10;100674.47;;;4.32;88.74
55675;BME280;41562;44.330;23.802;2023-02-03T05:25:37;100682.56;;;3.94;89.89
55675;BME280;41562;44.330;23.802;2023-02-03T05:28:05;100696.91;;;4.05;90.59
55675;BME280;41562;44.330;23.802;2023-02-03T05:30:32;100692.06;;;4.02;89.35
55675;BME280;41562;44.330;23.802;2023-02-03T05:33:00;100704.25;;;4.03;93.56
55675;BME280;41562;44.330;23.802;2023-02-03T05:35:27;100698.69;;;4.11;95.48
55675;BME280;41562;44.330;23.802;2023-02-03T05:37:55;100700.50;;;3.86;91.01
55675;BME280;41562;44.330;23.802;2023-02-03T05:40:22;100704.41;;;4.08;100.00
55675;BME280;41562;44.330;23.802;2023-02-03T05:42:49;100710.88;;;4.12;95.21
55675;BME280;41562;44.330;23.802;2023-02-03T05:45:16;100708.44;;;4.17;94.64
55675;BME280;41562;44.330;23.802;2023-02-03T05:47:44;100704.84;;;4.05;89.48
55675;BME280;41562;44.330;23.802;2023-02-03T05:50:11;100710.41;;;3.97;91.74
55675;BME280;41562;44.330;23.802;2023-02-03T05:52:41;100715.88;;;4.02;93.83
55675;BME280;41562;44.330;23.802;2023-02-03T05:55:08;100713.59;;;4.05;93.99
55675;BME280;41562;44.330;23.802;2023-02-03T05:57:35;100711.44;;;3.96;89.38
55675;BME280;41562;44.330;23.802;2023-02-03T06:00:04;100715.50;;;3.67;89.71
55675;BME280;41562;44.330;23.802;2023-02-03T06:02:34;100713.59;;;3.81;97.88
55675;BME280;41562;44.330;23.802;2023-02-03T06:05:02;100706.34;;;3.38;90.02
55675;BME280;41562;44.330;23.802;2023-02-03T06:07:29;100712.88;;;3.29;90.66
55675;BME280;41562;44.330;23.802;2023-02-03T06:09:56;100711.69;;;3.25;90.95
55675;BME280;41562;44.330;23.802;2023-02-03T06:12:24;100708.91;;;3.83;98.36
55675;BME280;41562;44.330;23.802;2023-02-03T06:14:54;100710.16;;;4.30;90.18
55675;BME280;41562;44.330;23.802;2023-02-03T06:17:22;100719.63;;;4.37;86.17
55675;BME280;41562;44.330;23.802;2023-02-03T06:19:49;100732.03;;;4.98;83.27
55675;BME280;41562;44.330;23.802;2023-02-03T06:22:16;100727.88;;;5.50;84.26
55675;BME280;41562;44.330;23.802;2023-02-03T06:24:43;100740.59;;;6.01;84.60
55675;BME280;41562;44.330;23.802;2023-02-03T06:27:11;100745.34;;;5.99;78.10
55675;BME280;41562;44.330;23.802;2023-02-03T06:29:39;100734.84;;;6.04;77.10
55675;BME280;41562;44.330;23.802;2023-02-03T06:32:07;100751.94;;;5.67;77.57
55675;BME280;41562;44.330;23.802;2023-02-03T06:34:35;100764.69;;;5.29;82.97
55675;BME280;41562;44.330;23.802;2023-02-03T06:37:03;100766.16;;;5.24;81.45
55675;BME280;41562;44.330;23.802;2023-02-03T06:39:30;100760.28;;;4.86;82.85
55675;BME280;41562;44.330;23.802;2023-02-03T06:41:57;100768.16;;;4.93;82.18
55675;BME280;41562;44.330;23.802;2023-02-03T06:44:25;100759.16;;;5.60;83.26
55675;BME280;41562;44.330;23.802;2023-02-03T06:46:52;100767.78;;;5.85;78.23
55675;BME280;41562;44.330;23.802;2023-02-03T06:49:20;100764.75;;;6.12;76.50
55675;BME280;41562;44.330;23.802;2023-02-03T06:51:47;100781.13;;;6.09;77.12
55675;BME280;41562;44.330;23.802;2023-02-03T06:54:15;100774.03;;;6.79;78.34
55675;BME280;41562;44.330;23.802;2023-02-03T06:56:42;100773.03;;;7.08;73.82
55675;BME280;41562;44.330;23.802;2023-02-03T06:59:10;100788.38;;;8.31;69.19
55675;BME280;41562;44.330;23.802;2023-02-03T07:01:40;100792.50;;;8.39;67.59
55675;BME280;41562;44.330;23.802;2023-02-03T07:04:07;100792.41;;;8.67;66.93
55675;BME280;41562;44.330;23.802;2023-02-03T07:06:35;100793.88;;;9.18;65.75
55675;BME280;41562;44.330;23.802;2023-02-03T07:09:05;100792.47;;;9.33;63.89
55675;BME280;41562;44.330;23.802;2023-02-03T07:11:33;100790.03;;;9.53;64.32
55675;BME280;41562;44.330;23.802;2023-02-03T07:14:00;100800.75;;;8.93;68.07
55675;BME280;41562;44.330;23.802;2023-02-03T07:16:31;100796.81;;;9.17;64.17
55675;BME280;41562;44.330;23.802;2023-02-03T07:18:59;100802.56;;;9.31;64.47
55675;BME280;41562;44.330;23.802;2023-02-03T07:21:26;100804.19;;;9.32;64.24
55675;BME280;41562;44.330;23.802;2023-02-03T07:23:56;100801.47;;;9.26;65.09
55675;BME280;41562;44.330;23.802;2023-02-03T07:26:26;100810.59;;;8.70;65.73
55675;BME280;41562;44.330;23.802;2023-02-03T07:28:54;100825.19;;;8.68;66.69
55675;BME280;41562;44.330;23.802;2023-02-03T07:31:27;100820.81;;;8.95;66.39
55675;BME280;41562;44.330;23.802;2023-02-03T07:33:55;100823.91;;;8.70;73.25
55675;BME280;41562;44.330;23.802;2023-02-03T07:36:22;100822.41;;;8.96;67.33
55675;BME280;41562;44.330;23.802;2023-02-03T07:38:50;100819.47;;;7.97;68.66
55675;BME280;41562;44.330;23.802;2023-02-03T07:41:17;100825.69;;;8.48;68.95
55675;BME280;41562;44.330;23.802;2023-02-03T07:43:44;100824.78;;;8.76;74.05
55675;BME280;41562;44.330;23.802;2023-02-03T07:46:12;100822.47;;;9.01;68.78
55675;BME280;41562;44.330;23.802;2023-02-03T07:48:39;100826.41;;;9.15;65.91
55675;BME280;41562;44.330;23.802;2023-02-03T07:51:07;100826.03;;;9.50;65.27
55675;BME280;41562;44.330;23.802;2023-02-03T07:53:37;100830.44;;;9.61;66.86
55675;BME280;41562;44.330;23.802;2023-02-03T07:56:05;100834.19;;;9.87;63.90
55675;BME280;41562;44.330;23.802;2023-02-03T07:58:33;100826.66;;;9.79;64.00
55675;BME280;41562;44.330;23.802;2023-02-03T08:01:08;100824.00;;;10.38;61.44
55675;BME280;41562;44.330;23.802;2023-02-03T08:03:35;100841.66;;;9.85;64.52
55675;BME280;41562;44.330;23.802;2023-02-03T08:06:03;100832.94;;;10.48;63.59
55675;BME280;41562;44.330;23.802;2023-02-03T08:08:30;100833.72;;;9.90;62.32
55675;BME280;41562;44.330;23.802;2023-02-03T08:11:00;100837.00;;;9.97;62.65
55675;BME280;41562;44.330;23.802;2023-02-03T08:13:27;100841.63;;;9.58;64.48
55675;BME280;41562;44.330;23.802;2023-02-03T08:15:56;100842.06;;;9.72;63.93
55675;BME280;41562;44.330;23.802;2023-02-03T08:18:27;100844.09;;;9.65;63.71
55675;BME280;41562;44.330;23.802;2023-02-03T08:20:57;100846.81;;;10.19;61.70
55675;BME280;41562;44.330;23.802;2023-02-03T08:23:31;100841.47;;;10.82;60.55
55675;BME280;41562;44.330;23.802;2023-02-03T08:25:59;100848.97;;;10.17;61.25
55675;BME280;41562;44.330;23.802;2023-02-03T08:28:26;100846.75;;;10.14;62.74
55675;BME280;41562;44.330;23.802;2023-02-03T08:30:57;100847.88;;;9.69;62.79
55675;BME280;41562;44.330;23.802;2023-02-03T08:33:24;100857.25;;;10.47;67.61
55675;BME280;41562;44.330;23.802;2023-02-03T08:35:51;100853.00;;;10.51;60.33
55675;BME280;41562;44.330;23.802;2023-02-03T08:38:19;100847.22;;;10.32;60.47
55675;BME280;41562;44.330;23.802;2023-02-03T08:40:46;100856.50;;;10.25;58.89
55675;BME280;41562;44.330;23.802;2023-02-03T08:43:17;100856.50;;;10.25;62.35
55675;BME280;41562;44.330;23.802;2023-02-03T08:45:44;100851.75;;;10.32;59.50
55675;BME280;41562;44.330;23.802;2023-02-03T08:48:12;100860.28;;;9.80;60.09
55675;BME280;41562;44.330;23.802;2023-02-03T08:50:45;100865.56;;;9.32;61.79
55675;BME280;41562;44.330;23.802;2023-02-03T08:53:15;100851.94;;;11.31;69.57
55675;BME280;41562;44.330;23.802;2023-02-03T08:55:43;100860.78;;;11.37;57.82
55675;BME280;41562;44.330;23.802;2023-02-03T08:58:14;100856.78;;;10.55;59.17
55675;BME280;41562;44.330;23.802;2023-02-03T09:00:41;100871.75;;;9.54;60.89
55675;BME280;41562;44.330;23.802;2023-02-03T09:03:15;100866.78;;;9.41;68.74
55675;BME280;41562;44.330;23.802;2023-02-03T09:05:46;100868.22;;;9.10;62.43
55675;BME280;41562;44.330;23.802;2023-02-03T09:08:14;100870.44;;;8.96;62.03
55675;BME280;41562;44.330;23.802;2023-02-03T09:10:44;100866.25;;;9.22;66.08
55675;BME280;41562;44.330;23.802;2023-02-03T09:13:11;100875.59;;;9.63;64.72
55675;BME280;41562;44.330;23.802;2023-02-03T09:15:44;100874.88;;;9.94;64.81
55675;BME280;41562;44.330;23.802;2023-02-03T09:20:48;100878.47;;;9.18;62.04
55675;BME280;41562;44.330;23.802;2023-02-03T09:23:18;100878.09;;;9.48;67.51
55675;BME280;41562;44.330;23.802;2023-02-03T09:25:47;100868.88;;;9.39;69.36
55675;BME280;41562;44.330;23.802;2023-02-03T09:28:15;100878.94;;;9.53;62.43
55675;BME280;41562;44.330;23.802;2023-02-03T09:30:43;100872.28;;;9.56;60.42
55675;BME280;41562;44.330;23.802;2023-02-03T09:33:10;100862.91;;;9.32;63.47
55675;BME280;41562;44.330;23.802;2023-02-03T09:35:38;100853.13;;;9.59;63.13
55675;BME280;41562;44.330;23.802;2023-02-03T09:38:05;100853.50;;;9.46;61.70
55675;BME280;41562;44.330;23.802;2023-02-03T09:40:33;100854.97;;;9.15;62.81
55675;BME280;41562;44.330;23.802;2023-02-03T09:43:11;100849.59;;;9.53;62.38
55675;BME280;41562;44.330;23.802;2023-02-03T09:45:40;100849.72;;;9.90;65.15
55675;BME280;41562;44.330;23.802;2023-02-03T09:48:18;100848.28;;;8.96;61.63
55675;BME280;41562;44.330;23.802;2023-02-03T09:50:52;100845.19;;;9.04;63.43
55675;BME280;41562;44.330;23.802;2023-02-03T09:55:51;100825.28;;;8.56;64.22
55675;BME280;41562;44.330;23.802;2023-02-03T09:58:20;100824.50;;;11.09;59.62
55675;BME280;41562;44.330;23.802;2023-02-03T10:01:02;100816.53;;;11.19;55.62
55675;BME280;41562;44.330;23.802;2023-02-03T10:03:50;100813.06;;;9.59;62.67
55675;BME280;41562;44.330;23.802;2023-02-03T10:06:44;100810.84;;;9.07;61.19
55675;BME280;41562;44.330;23.802;2023-02-03T10:09:16;100804.00;;;8.95;62.32
55675;BME280;41562;44.330;23.802;2023-02-03T10:11:53;100804.63;;;9.23;61.70
55675;BME280;41562;44.330;23.802;2023-02-03T10:14:54;100809.06;;;9.35;64.56
55675;BME280;41562;44.330;23.802;2023-02-03T10:22:52;100779.75;;;9.40;60.32
55675;BME280;41562;44.330;23.802;2023-02-03T10:25:43;100772.41;;;9.52;69.26
55675;BME280;41562;44.330;23.802;2023-02-03T10:28:17;100774.16;;;9.41;62.48
55675;BME280;41562;44.330;23.802;2023-02-03T10:30:53;100765.53;;;8.91;60.26
55675;BME280;41562;44.330;23.802;2023-02-03T10:33:28;100768.56;;;8.99;62.65
55675;BME280;41562;44.330;23.802;2023-02-03T10:36:21;100776.78;;;9.14;59.62
55675;BME280;41562;44.330;23.802;2023-02-03T10:41:30;100773.91;;;8.99;59.30
55675;BME280;41562;44.330;23.802;2023-02-03T10:44:01;100769.94;;;8.63;65.29
55675;BME280;41562;44.330;23.802;2023-02-03T10:46:31;100768.94;;;8.86;60.34
55675;BME280;41562;44.330;23.802;2023-02-03T10:49:03;100778.69;;;8.97;60.54
55675;BME280;41562;44.330;23.802;2023-02-03T10:51:36;100780.22;;;8.93;58.68
55675;BME280;41562;44.330;23.802;2023-02-03T10:54:34;100773.59;;;9.39;63.93
55675;BME280;41562;44.330;23.802;2023-02-03T10:57:09;100786.63;;;9.14;58.51
55675;BME280;41562;44.330;23.802;2023-02-03T10:59:41;100766.88;;;8.71;60.02
55675;BME280;41562;44.330;23.802;2023-02-03T11:02:24;100770.06;;;8.90;60.28
55675;BME280;41562;44.330;23.802;2023-02-03T11:05:18;100759.59;;;8.67;69.49
55675;BME280;41562;44.330;23.802;2023-02-03T11:07:50;100764.56;;;8.41;61.30
55675;BME280;41562;44.330;23.802;2023-02-03T11:10:41;100762.22;;;8.45;61.18
55675;BME280;41562;44.330;23.802;2023-02-03T11:15:52;100767.16;;;8.53;67.53
55675;BME280;41562;44.330;23.802;2023-02-03T11:20:53;100774.38;;;7.62;63.26
55675;BME280;41562;44.330;23.802;2023-02-03T11:23:20;100763.25;;;7.37;62.43
55675;BME280;41562;44.330;23.802;2023-02-03T11:25:49;100763.00;;;7.95;70.31
55675;BME280;41562;44.330;23.802;2023-02-03T11:28:17;100756.84;;;7.50;62.37
55675;BME280;41562;44.330;23.802;2023-02-03T11:30:45;100756.91;;;7.38;63.16
55675;BME280;41562;44.330;23.802;2023-02-03T11:33:18;100756.41;;;7.41;63.38
55675;BME280;41562;44.330;23.802;2023-02-03T11:35:58;100756.13;;;7.54;62.97
55675;BME280;41562;44.330;23.802;2023-02-03T11:38:33;100760.59;;;7.37;63.06
55675;BME280;41562;44.330;23.802;2023-02-03T11:41:01;100764.13;;;7.26;62.66
55675;BME280;41562;44.330;23.802;2023-02-03T11:43:33;100754.34;;;7.43;61.15
55675;BME280;41562;44.330;23.802;2023-02-03T11:46:03;100757.94;;;7.65;63.34
55675;BME280;41562;44.330;23.802;2023-02-03T11:48:36;100754.41;;;7.48;62.31
55675;BME280;41562;44.330;23.802;2023-02-03T12:00:14;100754.00;;;7.00;64.73
55675;BME280;41562;44.330;23.802;2023-02-03T12:09:14;100750.56;;;6.88;64.56
55675;BME280;41562;44.330;23.802;2023-02-03T12:14:16;100750.34;;;6.89;66.45
55675;BME280;41562;44.330;23.802;2023-02-03T12:23:15;100742.59;;;6.76;66.03
55675;BME280;41562;44.330;23.802;2023-02-03T12:26:14;100738.06;;;7.00;66.07
55675;BME280;41562;44.330;23.802;2023-02-03T12:34:40;100712.19;;;7.23;69.97
55675;BME280;41562;44.330;23.802;2023-02-03T12:37:27;100706.69;;;7.42;62.91
55675;BME280;41562;44.330;23.802;2023-02-03T12:40:11;100706.63;;;7.53;63.75
55675;BME280;41562;44.330;23.802;2023-02-03T12:46:04;100693.66;;;7.90;63.40
55675;BME280;41562;44.330;23.802;2023-02-03T12:51:23;100687.78;;;7.72;62.30
55675;BME280;41562;44.330;23.802;2023-02-03T12:53:55;100692.47;;;7.64;62.66
55675;BME280;41562;44.330;23.802;2023-02-03T12:56:39;100691.19;;;7.84;63.05
55675;BME280;41562;44.330;23.802;2023-02-03T12:59:21;100685.31;;;7.53;60.92
55675;BME280;41562;44.330;23.802;2023-02-03T13:01:58;100674.81;;;7.30;61.46
55675;BME280;41562;44.330;23.802;2023-02-03T13:04:37;100689.88;;;7.70;61.29
55675;BME280;41562;44.330;23.802;2023-02-03T13:07:32;100680.97;;;7.47;59.87
55675;BME280;41562;44.330;23.802;2023-02-03T13:10:21;100673.56;;;7.21;60.84
55675;BME280;41562;44.330;23.802;2023-02-03T13:12:55;100671.13;;;7.48;59.79
55675;BME280;41562;44.330;23.802;2023-02-03T13:15:30;100670.88;;;7.78;62.80
55675;BME280;41562;44.330;23.802;2023-02-03T13:20:32;100673.19;;;7.29;60.09
55675;BME280;41562;44.330;23.802;2023-02-03T13:23:10;100669.78;;;7.45;59.34
55675;BME280;41562;44.330;23.802;2023-02-03T13:25:59;100676.19;;;7.78;66.01
55675;BME280;41562;44.330;23.802;2023-02-03T13:29:20;100666.53;;;7.43;58.97
55675;BME280;41562;44.330;23.802;2023-02-03T13:34:26;100675.69;;;7.64;59.39
55675;BME280;41562;44.330;23.802;2023-02-03T13:43:05;100665.50;;;7.16;57.36
55675;BME280;41562;44.330;23.802;2023-02-03T13:45:51;100672.75;;;7.49;58.58
55675;BME280;41562;44.330;23.802;2023-02-03T13:48:28;100666.09;;;7.35;56.59
55675;BME280;41562;44.330;23.802;2023-02-03T13:53:43;100655.72;;;7.33;60.00
55675;BME280;41562;44.330;23.802;2023-02-03T13:56:36;100646.66;;;7.62;60.13
55675;BME280;41562;44.330;23.802;2023-02-03T14:01:42;100643.00;;;10.85;52.99
55675;BME280;41562;44.330;23.802;2023-02-03T14:07:39;100646.16;;;7.65;60.22
55675;BME280;41562;44.330;23.802;2023-02-03T14:10:33;100647.38;;;7.58;55.41
55675;BME280;41562;44.330;23.802;2023-02-03T14:13:03;100642.22;;;7.51;56.57
55675;BME280;41562;44.330;23.802;2023-02-03T14:16:44;100646.16;;;7.65;61.19
55675;BME280;41562;44.330;23.802;2023-02-03T14:19:04;100650.66;;;7.32;54.64
55675;BME280;41562;44.330;23.802;2023-02-03T14:21:46;100658.63;;;6.63;56.05
55675;BME280;41562;44.330;23.802;2023-02-03T14:24:23;100652.44;;;6.86;61.80
55675;BME280;41562;44.330;23.802;2023-02-03T14:26:57;100648.88;;;7.37;67.28
55675;BME280;41562;44.330;23.802;2023-02-03T14:29:31;100649.47;;;6.71;56.97
55675;BME280;41562;44.330;23.802;2023-02-03T14:34:45;100647.84;;;6.81;63.84
55675;BME280;41562;44.330;23.802;2023-02-03T14:37:27;100653.06;;;6.76;56.89
55675;BME280;41562;44.330;23.802;2023-02-03T14:43:07;100645.38;;;6.40;57.78
55675;BME280;41562;44.330;23.802;2023-02-03T14:59:54;100623.91;;;5.83;57.90
55675;BME280;41562;44.330;23.802;2023-02-03T15:02:33;100618.50;;;6.01;56.27